createdAt,value
2018-10-12T00:01:37.394Z,16.10
2018-10-12T00:03:41.669Z,16.10
2018-10-12T00:05:45.843Z,16.10
2018-10-12T00:07:50.024Z,16.10
2018-10-12T00:09:54.227Z,16.00
2018-10-12T00:11:58.450Z,16.00
2018-10-12T00:14:02.642Z,15.90
2018-10-12T00:16:07.531Z,15.90
2018-10-12T00:18:11.722Z,15.80
2018-10-12T00:20:15.967Z,15.80
2018-10-12T00:22:20.178Z,15.70
2018-10-12T00:24:24.382Z,15.80
2018-10-12T00:26:28.650Z,15.70
2018-10-12T00:28:32.859Z,15.60
2018-10-12T00:30:37.275Z,15.60
2018-10-12T00:32:41.460Z,15.60
2018-10-12T00:34:45.637Z,15.60
2018-10-12T00:36:49.862Z,15.50
2018-10-12T00:38:54.091Z,15.50
2018-10-12T00:40:58.363Z,15.50
2018-10-12T00:43:02.698Z,15.40
2018-10-12T00:45:07.083Z,15.40
2018-10-12T00:47:11.280Z,15.40
2018-10-12T00:49:15.450Z,15.40
2018-10-12T00:51:19.665Z,15.40
2018-10-12T00:53:23.910Z,15.30
2018-10-12T00:55:29.041Z,15.30
2018-10-12T00:57:33.272Z,15.30
2018-10-12T00:59:37.679Z,15.30
2018-10-12T01:01:41.895Z,15.20
2018-10-12T01:03:46.201Z,15.20
2018-10-12T01:05:50.409Z,15.20
2018-10-12T01:07:54.839Z,15.20
2018-10-12T01:10:04.097Z,15.10
2018-10-12T01:14:37.067Z,15.00
2018-10-12T01:16:41.266Z,15.00
2018-10-12T01:18:45.480Z,15.00
2018-10-12T01:20:49.868Z,15.00
2018-10-12T01:22:54.079Z,15.00
2018-10-12T01:24:59.536Z,15.00
2018-10-12T01:27:03.819Z,15.00
2018-10-12T01:29:08.107Z,14.90
2018-10-12T01:31:12.446Z,14.90
2018-10-12T01:33:16.630Z,14.90
2018-10-12T01:35:20.805Z,14.80
2018-10-12T01:37:25.379Z,14.80
2018-10-12T01:39:29.602Z,14.90
2018-10-12T01:41:33.788Z,14.90
2018-10-12T01:43:38.014Z,14.90
2018-10-12T01:45:45.944Z,14.90
2018-10-12T01:47:50.215Z,14.80
2018-10-12T01:49:54.435Z,14.80
2018-10-12T01:51:58.746Z,14.80
2018-10-12T01:54:02.900Z,14.70
2018-10-12T01:56:07.599Z,14.70
2018-10-12T01:58:11.739Z,14.70
2018-10-12T02:00:15.975Z,14.70
2018-10-12T02:02:20.220Z,14.80
2018-10-12T02:04:24.419Z,14.70
2018-10-12T02:06:28.654Z,14.70
2018-10-12T02:08:32.825Z,14.70
2018-10-12T02:10:37.038Z,14.60
2018-10-12T02:12:41.294Z,14.60
2018-10-12T02:14:45.512Z,14.60
2018-10-12T02:16:49.815Z,14.50
2018-10-12T02:18:54.040Z,14.40
2018-10-12T02:20:58.209Z,14.50
2018-10-12T02:23:02.455Z,14.50
2018-10-12T02:25:07.402Z,14.60
2018-10-12T02:27:11.658Z,14.50
2018-10-12T02:29:15.958Z,14.40
2018-10-12T02:31:20.202Z,14.40
2018-10-12T02:33:24.431Z,14.50
2018-10-12T02:35:28.670Z,14.40
2018-10-12T02:37:33.085Z,14.40
2018-10-12T02:39:37.844Z,14.40
2018-10-12T02:41:42.650Z,14.30
2018-10-12T02:43:46.968Z,14.40
2018-10-12T02:45:51.766Z,14.50
2018-10-12T02:47:56.035Z,14.50
2018-10-12T02:50:00.478Z,14.60
2018-10-12T02:52:06.982Z,14.60
2018-10-12T02:54:11.303Z,14.50
2018-10-12T02:56:23.200Z,14.40
2018-10-12T02:58:28.090Z,14.50
2018-10-12T03:00:32.712Z,14.50
2018-10-12T03:02:37.161Z,14.50
2018-10-12T03:04:41.439Z,14.50
2018-10-12T03:06:46.515Z,14.60
2018-10-12T03:08:53.350Z,14.60
2018-10-12T03:10:57.728Z,14.50
2018-10-12T03:13:01.999Z,14.50
2018-10-12T03:15:06.606Z,14.50
2018-10-12T03:17:12.751Z,14.50
2018-10-12T03:19:16.990Z,14.60
2018-10-12T03:21:21.209Z,14.60
2018-10-12T03:23:25.547Z,14.50
2018-10-12T03:25:29.993Z,14.50
2018-10-12T03:27:45.524Z,14.50
2018-10-12T03:29:49.852Z,14.20
2018-10-12T03:31:54.177Z,14.00
2018-10-12T03:34:05.647Z,14.10
2018-10-12T03:36:14.991Z,14.30
2018-10-12T03:38:19.219Z,14.30
2018-10-12T03:40:26.870Z,14.40
2018-10-12T03:42:31.108Z,14.30
2018-10-12T03:44:38.398Z,14.30
2018-10-12T03:46:42.807Z,14.20
2018-10-12T03:48:49.276Z,14.20
2018-10-12T03:50:53.531Z,14.30
2018-10-12T03:53:00.912Z,14.30
2018-10-12T03:55:05.123Z,14.10
2018-10-12T03:57:11.132Z,14.10
2018-10-12T03:59:15.301Z,14.10
2018-10-12T04:01:21.067Z,14.20
2018-10-12T04:03:25.330Z,14.30
2018-10-12T04:05:29.861Z,14.30
2018-10-12T04:07:34.479Z,14.40
2018-10-12T04:09:40.262Z,14.50
2018-10-12T04:11:44.449Z,14.60
2018-10-12T04:13:48.646Z,14.60
2018-10-12T04:15:52.835Z,14.70
2018-10-12T04:17:57.012Z,14.70
2018-10-12T04:20:01.264Z,14.80
2018-10-12T04:22:05.453Z,14.80
2018-10-12T04:24:09.730Z,14.90
2018-10-12T04:26:13.941Z,14.90
2018-10-12T04:28:18.231Z,14.90
2018-10-12T04:30:27.196Z,15.00
2018-10-12T04:32:31.880Z,15.00
2018-10-12T04:34:36.284Z,15.00
2018-10-12T04:36:40.518Z,15.00
2018-10-12T04:38:55.720Z,15.10
2018-10-12T04:41:14.064Z,15.10
2018-10-12T04:43:18.723Z,15.00
2018-10-12T04:45:24.175Z,15.00
2018-10-12T04:47:31.236Z,15.00
2018-10-12T04:49:35.802Z,15.00
2018-10-12T04:51:48.377Z,15.00
2018-10-12T04:53:52.820Z,15.10
2018-10-12T04:55:57.316Z,15.10
2018-10-12T04:58:01.638Z,15.10
2018-10-12T05:00:06.894Z,15.10
2018-10-12T05:02:11.194Z,15.10
2018-10-12T05:04:15.560Z,15.10
2018-10-12T05:06:19.944Z,15.10
2018-10-12T05:08:24.206Z,15.20
2018-10-12T05:10:28.443Z,15.20
2018-10-12T05:12:32.943Z,15.10
2018-10-12T05:14:37.183Z,15.10
2018-10-12T05:16:41.449Z,15.20
2018-10-12T05:18:45.695Z,15.10
2018-10-12T05:20:50.595Z,15.10
2018-10-12T05:22:55.424Z,15.10
2018-10-12T05:25:00.440Z,15.10
2018-10-12T05:27:05.276Z,15.10
2018-10-12T05:29:09.935Z,15.10
2018-10-12T05:31:14.399Z,15.20
2018-10-12T05:33:18.708Z,15.00
2018-10-12T05:35:22.947Z,15.00
2018-10-12T05:37:27.152Z,15.00
2018-10-12T05:39:31.421Z,15.00
2018-10-12T05:41:35.660Z,14.90
2018-10-12T05:43:40.008Z,14.80
2018-10-12T05:45:44.519Z,14.90
2018-10-12T05:47:49.137Z,14.90
2018-10-12T05:50:01.955Z,14.90
2018-10-12T05:52:06.318Z,14.70
2018-10-12T05:54:10.718Z,14.80
2018-10-12T05:56:18.223Z,14.90
2018-10-12T05:58:22.631Z,14.90
2018-10-12T06:00:26.871Z,14.90
2018-10-12T06:02:31.103Z,14.80
2018-10-12T06:04:35.384Z,14.90
2018-10-12T06:06:39.619Z,14.80
2018-10-12T06:08:43.848Z,14.80
2018-10-12T06:10:48.245Z,14.80
2018-10-12T06:12:52.473Z,14.90
2018-10-12T06:14:56.734Z,14.90
2018-10-12T06:17:00.994Z,14.90
2018-10-12T06:19:05.247Z,14.90
2018-10-12T06:21:09.387Z,14.90
2018-10-12T06:23:13.667Z,14.80
2018-10-12T06:25:17.987Z,14.90
2018-10-12T06:27:22.287Z,14.90
2018-10-12T06:29:26.627Z,14.90
2018-10-12T06:31:30.911Z,14.90
2018-10-12T06:33:35.092Z,15.00
2018-10-12T06:35:39.309Z,15.00
2018-10-12T06:37:43.523Z,15.10
2018-10-12T06:39:47.790Z,15.10
2018-10-12T06:41:52.187Z,15.10
2018-10-12T06:43:56.336Z,15.10
2018-10-12T06:46:00.528Z,15.20
2018-10-12T06:48:04.820Z,15.30
2018-10-12T06:50:09.047Z,15.30
2018-10-12T06:52:13.497Z,15.20
2018-10-12T06:54:17.785Z,15.30
2018-10-12T06:56:21.961Z,15.30
2018-10-12T06:58:26.198Z,15.30
2018-10-12T07:00:30.411Z,15.40
2018-10-12T07:02:34.592Z,15.40
2018-10-12T07:04:38.814Z,15.40
2018-10-12T07:06:43.193Z,15.40
2018-10-12T07:08:47.376Z,15.40
2018-10-12T07:10:51.585Z,15.40
2018-10-12T07:12:55.876Z,15.50
2018-10-12T07:15:00.207Z,15.50
2018-10-12T07:17:04.471Z,15.50
2018-10-12T07:19:08.721Z,15.50
2018-10-12T07:21:12.905Z,15.50
2018-10-12T07:23:17.181Z,15.60
2018-10-12T07:25:21.353Z,15.60
2018-10-12T07:27:25.567Z,15.60
2018-10-12T07:29:30.136Z,15.60
2018-10-12T07:31:34.550Z,15.70
2018-10-12T07:33:38.779Z,15.70
2018-10-12T07:35:43.116Z,15.80
2018-10-12T07:37:47.464Z,15.80
2018-10-12T07:39:51.693Z,15.90
2018-10-12T07:41:55.941Z,16.00
2018-10-12T07:44:00.162Z,16.00
2018-10-12T07:46:04.451Z,16.00
2018-10-12T07:48:08.763Z,16.00
2018-10-12T07:50:13.011Z,16.00
2018-10-12T07:52:17.235Z,16.10
2018-10-12T07:54:21.409Z,16.20
2018-10-12T07:56:25.627Z,16.20
2018-10-12T07:58:29.950Z,16.20
2018-10-12T08:00:34.413Z,16.40
2018-10-12T08:02:38.475Z,16.40
2018-10-12T08:04:43.198Z,16.40
2018-10-12T08:06:47.435Z,16.40
2018-10-12T08:08:51.760Z,16.40
2018-10-12T08:10:56.009Z,16.40
2018-10-12T08:13:00.222Z,16.40
2018-10-12T08:15:04.400Z,16.60
2018-10-12T08:17:08.753Z,16.60
2018-10-12T08:19:13.533Z,16.70
2018-10-12T08:21:17.892Z,16.70
2018-10-12T08:23:22.282Z,16.80
2018-10-12T08:25:26.517Z,16.80
2018-10-12T08:27:30.797Z,16.80
2018-10-12T08:29:35.030Z,16.80
2018-10-12T08:31:39.293Z,16.90
2018-10-12T08:33:43.590Z,17.00
2018-10-12T08:35:47.887Z,17.20
2018-10-12T08:37:52.150Z,17.20
2018-10-12T08:39:56.402Z,17.30
2018-10-12T08:42:00.571Z,17.20
2018-10-12T08:44:05.051Z,17.20
2018-10-12T08:46:09.303Z,17.30
2018-10-12T08:48:13.522Z,17.30
2018-10-12T08:50:17.879Z,17.30
2018-10-12T08:52:22.151Z,17.50
2018-10-12T08:54:26.435Z,17.50
2018-10-12T08:56:30.614Z,17.30
2018-10-12T08:58:35.197Z,17.20
2018-10-12T09:00:40.355Z,17.20
2018-10-12T09:02:45.930Z,17.20
2018-10-12T09:04:50.300Z,17.20
2018-10-12T09:06:54.839Z,17.20
2018-10-12T09:08:59.414Z,17.40
2018-10-12T09:11:03.596Z,17.40
2018-10-12T09:13:07.801Z,17.50
2018-10-12T09:15:11.978Z,17.40
2018-10-12T09:17:16.325Z,17.60
2018-10-12T09:19:20.485Z,17.50
2018-10-12T09:21:24.724Z,17.50
2018-10-12T09:23:28.949Z,17.50
2018-10-12T09:25:33.122Z,17.50
2018-10-12T09:27:37.309Z,17.50
2018-10-12T09:29:41.524Z,17.60
2018-10-12T09:31:45.686Z,17.60
2018-10-12T09:33:50.337Z,17.80
2018-10-12T09:35:54.483Z,17.80
2018-10-12T09:37:58.658Z,17.80
2018-10-12T09:40:02.891Z,17.90
2018-10-12T09:42:07.286Z,17.90
2018-10-12T09:44:11.517Z,18.10
2018-10-12T09:46:16.002Z,18.10
2018-10-12T09:48:20.423Z,18.00
2018-10-12T09:50:24.684Z,18.00
2018-10-12T09:52:29.061Z,18.00
2018-10-12T09:54:33.227Z,18.20
2018-10-12T09:56:37.462Z,18.20
2018-10-12T09:58:41.783Z,18.10
2018-10-12T10:00:50.922Z,18.10
2018-10-12T10:02:59.307Z,18.30
2018-10-12T10:05:08.413Z,18.30
2018-10-12T10:07:12.692Z,18.20
2018-10-12T10:09:17.003Z,18.20
2018-10-12T10:11:21.235Z,18.30
2018-10-12T10:13:25.502Z,18.30
2018-10-12T10:15:29.770Z,18.40
2018-10-12T10:17:33.977Z,18.40
2018-10-12T10:19:38.159Z,18.50
2018-10-12T10:21:42.414Z,18.50
2018-10-12T10:23:46.643Z,18.60
2018-10-12T10:25:50.839Z,18.60
2018-10-12T10:27:55.040Z,18.50
2018-10-12T10:29:59.191Z,18.70
2018-10-12T10:32:03.438Z,18.60
2018-10-12T10:34:08.498Z,18.60
2018-10-12T10:36:12.448Z,18.60
2018-10-12T10:38:16.658Z,18.70
2018-10-12T10:40:20.865Z,18.70
2018-10-12T10:42:25.190Z,18.70
2018-10-12T10:44:29.585Z,18.80
2018-10-12T10:46:34.967Z,18.70
2018-10-12T10:48:39.223Z,18.80
2018-10-12T10:50:43.482Z,18.80
2018-10-12T10:52:47.783Z,18.80
2018-10-12T10:54:51.972Z,18.90
2018-10-12T10:57:00.212Z,18.90
2018-10-12T10:59:04.438Z,18.90
2018-10-12T11:01:08.809Z,18.90
2018-10-12T11:03:13.037Z,19.00
2018-10-12T11:05:17.213Z,19.10
2018-10-12T11:07:21.415Z,19.10
2018-10-12T11:09:25.591Z,19.20
2018-10-12T11:11:29.737Z,19.10
2018-10-12T11:13:55.120Z,19.10
2018-10-12T11:15:59.327Z,19.20
2018-10-12T11:18:03.523Z,19.30
2018-10-12T11:20:07.978Z,19.40
2018-10-12T11:22:12.226Z,19.50
2018-10-12T11:24:16.458Z,19.60
2018-10-12T11:26:20.727Z,19.80
2018-10-12T11:28:24.884Z,19.70
2018-10-12T11:30:29.074Z,19.90
2018-10-12T11:32:34.270Z,19.90
2018-10-12T11:34:38.447Z,19.90
2018-10-12T11:36:42.625Z,20.00
2018-10-12T11:38:46.804Z,20.20
2018-10-12T11:40:50.991Z,20.40
2018-10-12T11:43:06.010Z,20.40
2018-10-12T11:45:10.240Z,20.30
2018-10-12T11:47:14.578Z,20.30
2018-10-12T11:49:18.842Z,20.40
2018-10-12T11:51:43.154Z,20.80
2018-10-12T11:54:06.719Z,21.00
2018-10-12T11:56:28.917Z,21.10
2018-10-12T11:58:49.868Z,21.00
2018-10-12T12:01:10.663Z,21.20
2018-10-12T12:03:15.609Z,21.30
2018-10-12T12:05:19.834Z,21.30
2018-10-12T12:07:24.209Z,21.40
2018-10-12T12:09:28.396Z,21.10
2018-10-12T12:11:32.678Z,21.40
2018-10-12T12:13:36.855Z,21.40
2018-10-12T12:15:41.090Z,21.60
2018-10-12T12:17:45.318Z,21.60
2018-10-12T12:19:49.531Z,22.00
2018-10-12T12:21:53.758Z,22.30
2018-10-12T12:23:57.983Z,22.20
2018-10-12T12:26:02.325Z,22.20
2018-10-12T12:28:06.574Z,22.40
2018-10-12T12:30:10.776Z,22.20
2018-10-12T12:32:14.926Z,22.30
2018-10-12T12:34:19.195Z,22.20
2018-10-12T12:36:23.344Z,22.10
2018-10-12T12:38:27.559Z,22.20
2018-10-12T12:40:31.796Z,22.20
2018-10-12T12:42:35.975Z,22.50
2018-10-12T12:44:40.184Z,22.40
2018-10-12T12:46:44.390Z,22.00
2018-10-12T12:48:49.006Z,21.90
2018-10-12T12:50:53.342Z,22.00
2018-10-12T12:52:57.542Z,21.80
2018-10-12T12:55:01.755Z,21.80
2018-10-12T12:57:05.921Z,22.10
2018-10-12T12:59:10.097Z,22.10
2018-10-12T13:01:14.362Z,22.10
2018-10-12T13:03:18.695Z,22.00
2018-10-12T13:05:22.991Z,22.10
2018-10-12T13:07:27.228Z,22.50
2018-10-12T13:09:31.447Z,22.40
2018-10-12T13:11:35.618Z,22.50
2018-10-12T13:13:39.844Z,22.70
2018-10-12T13:15:44.035Z,22.70
2018-10-12T13:17:48.269Z,22.80
2018-10-12T13:19:52.441Z,23.00
2018-10-12T13:21:56.746Z,23.20
2018-10-12T13:24:00.911Z,23.10
2018-10-12T13:26:05.190Z,23.20
2018-10-12T13:28:09.455Z,23.40
2018-10-12T13:30:13.638Z,23.60
2018-10-12T13:32:17.784Z,23.80
2018-10-12T13:34:21.996Z,24.10
2018-10-12T13:36:26.183Z,24.30
2018-10-12T13:38:30.359Z,24.40
2018-10-12T13:40:34.588Z,24.30
2018-10-12T13:42:38.736Z,24.60
2018-10-12T13:44:42.939Z,24.30
2018-10-12T13:46:47.063Z,24.20
2018-10-12T13:48:51.251Z,24.60
2018-10-12T13:50:55.535Z,24.30
2018-10-12T13:52:59.778Z,24.50
2018-10-12T13:55:03.992Z,24.80
2018-10-12T13:57:08.464Z,24.70
2018-10-12T13:59:12.731Z,24.40
2018-10-12T14:01:16.956Z,24.80
2018-10-12T14:03:21.200Z,24.90
2018-10-12T14:05:25.375Z,25.20
2018-10-12T14:07:29.566Z,25.10
2018-10-12T14:09:33.753Z,25.30
2018-10-12T14:11:37.967Z,25.70
2018-10-12T14:13:42.195Z,25.70
2018-10-12T14:15:46.431Z,25.10
2018-10-12T14:17:50.687Z,25.80
2018-10-12T14:19:54.891Z,25.80
2018-10-12T14:21:59.107Z,25.90
2018-10-12T14:24:03.281Z,25.90
2018-10-12T14:26:08.004Z,26.00
2018-10-12T14:28:12.209Z,25.70
2018-10-12T14:30:16.509Z,25.30
2018-10-12T14:32:20.838Z,25.50
2018-10-12T14:34:25.005Z,25.30
2018-10-12T14:36:29.252Z,25.50
2018-10-12T14:38:33.502Z,25.30
2018-10-12T14:40:37.730Z,25.10
2018-10-12T14:42:42.009Z,25.30
2018-10-12T14:44:46.335Z,25.60
2018-10-12T14:46:50.494Z,25.80
2018-10-12T14:48:54.615Z,25.80
2018-10-12T14:50:58.894Z,25.70
2018-10-12T14:53:03.169Z,25.30
2018-10-12T14:55:07.503Z,25.10
2018-10-12T14:57:16.855Z,25.20
2018-10-12T14:59:21.039Z,25.30
2018-10-12T15:01:25.415Z,25.20
2018-10-12T15:03:29.615Z,25.20
2018-10-12T15:05:33.891Z,25.10
2018-10-12T15:07:38.049Z,25.30
2018-10-12T15:09:42.315Z,25.30
2018-10-12T15:11:46.607Z,25.30
2018-10-12T15:13:50.850Z,25.20
2018-10-12T15:15:55.065Z,25.20
2018-10-12T15:17:59.858Z,25.20
2018-10-12T15:20:04.119Z,24.90
2018-10-12T15:22:08.385Z,24.90
2018-10-12T15:24:12.573Z,24.80
2018-10-12T15:26:16.758Z,24.80
2018-10-12T15:28:20.962Z,24.80
2018-10-12T15:30:25.203Z,24.90
2018-10-12T15:32:29.378Z,24.90
2018-10-12T15:34:33.684Z,24.90
2018-10-12T15:36:37.875Z,24.80
2018-10-12T15:38:42.102Z,24.90
2018-10-12T15:40:46.471Z,24.70
2018-10-12T15:42:50.796Z,24.50
2018-10-12T15:44:55.051Z,24.30
2018-10-12T15:46:59.211Z,24.20
2018-10-12T15:49:03.539Z,24.00
2018-10-12T15:51:07.934Z,23.80
2018-10-12T15:53:12.172Z,23.60
2018-10-12T15:55:16.490Z,23.50
2018-10-12T15:57:24.856Z,23.40
2018-10-12T15:59:29.071Z,23.30
2018-10-12T16:01:33.261Z,23.20
2018-10-12T16:03:37.438Z,23.00
2018-10-12T16:05:41.574Z,23.00
2018-10-12T16:07:45.769Z,22.90
2018-10-12T16:09:51.460Z,22.80
2018-10-12T16:11:55.792Z,22.70
2018-10-12T16:14:00.110Z,22.70
2018-10-12T16:16:04.351Z,22.60
2018-10-12T16:18:08.490Z,22.50
2018-10-12T16:20:12.682Z,22.50
2018-10-12T16:22:16.890Z,22.40
2018-10-12T16:24:21.034Z,22.30
2018-10-12T16:26:25.335Z,22.30
2018-10-12T16:28:29.547Z,22.30
2018-10-12T16:30:33.725Z,22.20
2018-10-12T16:32:37.911Z,22.10
2018-10-12T16:34:42.226Z,22.10
2018-10-12T16:36:46.498Z,22.00
2018-10-12T16:38:50.747Z,21.90
2018-10-12T16:40:54.910Z,21.90
2018-10-12T16:42:59.156Z,21.80
2018-10-12T16:45:03.415Z,21.80
2018-10-12T16:47:07.643Z,21.70
2018-10-12T16:49:11.894Z,21.70
2018-10-12T16:51:16.071Z,21.70
2018-10-12T16:53:20.286Z,21.60
2018-10-12T16:55:24.498Z,21.60
2018-10-12T16:57:35.471Z,21.50
2018-10-12T16:59:40.011Z,21.50
2018-10-12T17:01:44.258Z,21.40
2018-10-12T17:03:48.496Z,21.30
2018-10-12T17:05:52.684Z,21.40
2018-10-12T17:07:57.416Z,21.20
2018-10-12T17:10:01.645Z,21.20
2018-10-12T17:12:05.883Z,21.20
2018-10-12T17:14:10.105Z,21.20
2018-10-12T17:16:14.268Z,21.10
2018-10-12T17:18:18.486Z,21.10
2018-10-12T17:20:22.709Z,21.10
2018-10-12T17:22:26.901Z,21.00
2018-10-12T17:24:31.078Z,21.00
2018-10-12T17:26:35.379Z,21.00
2018-10-12T17:28:39.533Z,21.00
2018-10-12T17:30:43.706Z,20.90
2018-10-12T17:32:48.000Z,20.90
2018-10-12T17:34:52.170Z,20.80
2018-10-12T17:36:56.401Z,20.80
2018-10-12T17:39:00.587Z,20.70
2018-10-12T17:41:14.451Z,20.70
2018-10-12T17:43:18.735Z,20.70
2018-10-12T17:45:23.170Z,20.60
2018-10-12T17:47:27.408Z,20.60
2018-10-12T17:49:31.698Z,20.60
2018-10-12T17:51:35.856Z,20.60
2018-10-12T17:53:40.209Z,20.50
2018-10-12T17:55:44.474Z,20.40
2018-10-12T17:57:48.802Z,20.40
2018-10-12T18:01:51.422Z,20.40
2018-10-12T18:03:55.370Z,20.20
2018-10-12T18:05:59.378Z,20.20
2018-10-12T18:08:03.270Z,20.10
2018-10-12T18:10:08.854Z,20.00
2018-10-12T18:12:12.793Z,20.00
2018-10-12T18:14:16.837Z,20.10
2018-10-12T18:16:20.701Z,20.10
2018-10-12T18:18:24.642Z,20.00
2018-10-12T18:20:28.670Z,20.00
2018-10-12T18:22:32.644Z,20.10
2018-10-12T18:24:36.509Z,20.00
2018-10-12T18:26:40.471Z,20.00
2018-10-12T18:28:44.449Z,19.90
2018-10-12T18:30:48.376Z,19.90
2018-10-12T18:32:52.274Z,19.90
2018-10-12T18:34:56.197Z,19.90
2018-10-12T18:37:00.216Z,19.90
2018-10-12T18:39:05.505Z,19.90
2018-10-12T18:41:10.120Z,20.00
2018-10-12T18:43:14.375Z,19.90
2018-10-12T18:45:18.476Z,19.90
2018-10-12T18:47:22.732Z,19.90
2018-10-12T18:49:26.953Z,19.80
2018-10-12T18:51:31.206Z,19.80
2018-10-12T18:53:35.547Z,19.80
2018-10-12T18:55:39.760Z,19.70
2018-10-12T18:57:44.011Z,19.70
2018-10-12T18:59:48.238Z,19.70
2018-10-12T19:01:52.478Z,19.70
2018-10-12T19:03:56.719Z,19.70
2018-10-12T19:06:00.970Z,19.70
2018-10-12T19:08:05.193Z,19.60
2018-10-12T19:10:09.451Z,19.60
2018-10-12T19:12:13.684Z,19.60
2018-10-12T19:14:18.035Z,19.60
2018-10-12T19:16:22.308Z,19.60
2018-10-12T19:18:26.503Z,19.50
2018-10-12T19:20:30.730Z,19.50
2018-10-12T19:22:34.893Z,19.50
2018-10-12T19:24:39.084Z,19.50
2018-10-12T19:26:43.381Z,19.40
2018-10-12T19:28:47.578Z,19.50
2018-10-12T19:30:51.781Z,19.40
2018-10-12T19:32:56.032Z,19.40
2018-10-12T19:35:00.247Z,19.40
2018-10-12T19:37:04.467Z,19.40
2018-10-12T19:39:09.922Z,19.40
2018-10-12T19:41:14.169Z,19.30
2018-10-12T19:43:18.383Z,19.30
2018-10-12T19:45:22.875Z,19.30
2018-10-12T19:47:27.063Z,19.20
2018-10-12T19:49:31.308Z,19.30
2018-10-12T19:51:35.541Z,19.30
2018-10-12T19:53:39.731Z,19.20
2018-10-12T19:55:43.994Z,19.20
2018-10-12T19:57:48.279Z,19.30
2018-10-12T19:59:52.495Z,19.20
2018-10-12T20:01:56.679Z,19.20
2018-10-12T20:04:00.795Z,19.20
2018-10-12T20:06:05.099Z,19.20
2018-10-12T20:08:09.367Z,19.20
2018-10-12T20:10:13.570Z,19.20
2018-10-12T20:12:17.866Z,19.20
2018-10-12T20:16:50.406Z,19.20
2018-10-12T20:18:55.336Z,19.10
2018-10-12T20:20:59.499Z,19.10
2018-10-12T20:23:03.748Z,19.10
2018-10-12T20:25:08.024Z,19.10
2018-10-12T20:27:12.264Z,19.00
2018-10-12T20:29:16.489Z,19.00
2018-10-12T20:31:20.731Z,19.00
2018-10-12T20:33:24.977Z,18.90
2018-10-12T20:35:29.253Z,18.90
2018-10-12T20:37:33.512Z,18.90
2018-10-12T20:39:37.810Z,18.90
2018-10-12T20:41:41.995Z,18.90
2018-10-12T20:43:46.218Z,18.80
2018-10-12T20:45:50.525Z,18.90
2018-10-12T20:47:54.678Z,18.80
2018-10-12T20:49:58.906Z,18.80
2018-10-12T20:52:03.104Z,18.70
2018-10-12T20:54:07.614Z,18.50
2018-10-12T20:56:11.929Z,18.60
2018-10-12T20:58:17.266Z,18.50
2018-10-12T21:00:21.452Z,18.50
2018-10-12T21:02:25.706Z,18.50
2018-10-12T21:04:29.895Z,18.40
2018-10-12T21:06:34.059Z,18.50
2018-10-12T21:08:38.308Z,18.40
2018-10-12T21:10:42.538Z,18.50
2018-10-12T21:12:46.740Z,18.50
2018-10-12T21:14:50.942Z,18.50
2018-10-12T21:16:55.146Z,18.50
2018-10-12T21:19:00.537Z,18.60
2018-10-12T21:21:04.762Z,18.60
2018-10-12T21:23:08.933Z,18.60
2018-10-12T21:25:13.164Z,18.60
2018-10-12T21:27:17.413Z,18.60
2018-10-12T21:29:21.580Z,18.60
2018-10-12T21:31:25.969Z,18.60
2018-10-12T21:33:30.259Z,18.50
2018-10-12T21:35:34.466Z,18.50
2018-10-12T21:37:38.674Z,18.50
2018-10-12T21:39:42.878Z,18.50
2018-10-12T21:41:47.137Z,18.30
2018-10-12T21:43:51.354Z,18.40
2018-10-12T21:45:55.723Z,18.30
2018-10-12T21:48:00.016Z,18.30
2018-10-12T21:50:04.239Z,18.30
2018-10-12T21:52:08.727Z,18.20
2018-10-12T21:54:12.987Z,18.20
2018-10-12T21:56:17.291Z,18.20
2018-10-12T21:58:21.589Z,18.10
2018-10-12T22:00:25.855Z,18.10
2018-10-12T22:02:30.024Z,18.10
2018-10-12T22:04:41.346Z,18.00
2018-10-12T22:06:45.935Z,18.00
2018-10-12T22:08:51.345Z,17.90
2018-10-12T22:10:55.527Z,17.90
2018-10-12T22:12:59.765Z,17.90
2018-10-12T22:15:03.986Z,17.90
2018-10-12T22:17:08.233Z,17.90
2018-10-12T22:19:12.499Z,17.90
2018-10-12T22:21:16.690Z,17.80
2018-10-12T22:23:20.948Z,17.80
2018-10-12T22:25:25.183Z,17.80
2018-10-12T22:27:29.374Z,17.80
2018-10-12T22:29:33.730Z,17.70
2018-10-12T22:31:37.947Z,17.70
2018-10-12T22:33:42.229Z,17.60
2018-10-12T22:35:46.475Z,17.60
2018-10-12T22:37:50.696Z,17.50
2018-10-12T22:39:54.935Z,17.50
2018-10-12T22:41:59.222Z,17.50
2018-10-12T22:44:03.518Z,17.40
2018-10-12T22:46:08.207Z,17.40
2018-10-12T22:48:12.478Z,17.50
2018-10-12T22:50:16.693Z,17.50
2018-10-12T22:52:20.882Z,17.50
2018-10-12T22:54:25.084Z,17.50
2018-10-12T22:56:29.328Z,17.50
2018-10-12T22:58:33.543Z,17.60
2018-10-12T23:00:37.760Z,17.70
2018-10-12T23:02:41.915Z,17.60
2018-10-12T23:04:46.095Z,17.60
2018-10-12T23:06:50.382Z,17.60
2018-10-12T23:08:54.602Z,17.60
2018-10-12T23:10:58.750Z,17.60
2018-10-12T23:13:02.927Z,17.70
2018-10-12T23:15:07.152Z,17.80
2018-10-12T23:17:11.332Z,17.80
2018-10-12T23:19:15.510Z,17.90
2018-10-12T23:21:19.819Z,17.90
2018-10-12T23:23:24.074Z,17.90
2018-10-12T23:25:28.275Z,18.00
2018-10-12T23:27:32.772Z,18.10
2018-10-12T23:29:37.019Z,18.10
2018-10-12T23:31:41.195Z,18.10
2018-10-12T23:34:00.309Z,18.10
2018-10-12T23:36:04.563Z,18.20
2018-10-12T23:38:08.775Z,18.20
2018-10-12T23:40:13.076Z,18.20
2018-10-12T23:42:17.255Z,18.20
2018-10-12T23:44:21.454Z,18.30
2018-10-12T23:46:25.919Z,18.30
2018-10-12T23:48:30.114Z,18.30
2018-10-12T23:50:34.272Z,18.30
2018-10-12T23:52:38.442Z,18.30
2018-10-12T23:54:42.663Z,18.30
2018-10-12T23:56:46.946Z,18.30
2018-10-12T23:58:51.222Z,18.40
